Time;durP1;ratioP1;P1;durP2;ratioP2;P2;SDS_P1;SDS_P2;PMS_P1;PMS_P2;Temp;Humidity;BMP_temperature;BMP_pressure;BME280_temperature;BME280_humidity;BME280_pressure;Samples;Min_cycle;Max_cycle;Signal;HPM_P1;HPM_P2
2023/05/02 00:01:06;;;;;;;;;;;;;;;-140.72;100.00;52737.84;5088639;28;19970;-70
2023/05/02 00:03:31;;;;;;;;;;;;;;;-140.72;100.00;52756.13;5088238;28;20054;-70
2023/05/02 00:05:57;;;;;;;;;;;;;;;-140.72;100.00;52774.38;5087591;28;20263;-70
2023/05/02 00:08:22;;;;;;;;;;;;;;;-140.72;100.00;52766.25;5090597;28;20328;-70
2023/05/02 00:10:47;;;;;;;;;;;;;;;-140.72;100.00;52748.00;5080859;28;19917;-70
2023/05/02 00:13:12;;;;;;;;;;;;;;;-140.72;100.00;52745.97;5104620;28;19916;-71
2023/05/02 00:15:38;;;;;;;;;;;;;;;-140.72;100.00;52752.06;5094073;28;19916;-70
2023/05/02 00:18:03;;;;;;;;;;;;;;;-140.72;100.00;52764.25;5091715;28;19947;-70
2023/05/02 00:20:28;;;;;;;;;;;;;;;-140.72;100.00;52760.19;5097631;28;19924;-70
2023/05/02 00:22:54;;;;;;;;;;;;;;;-140.72;100.00;52750.03;5086089;28;19925;-70
2023/05/02 00:25:20;;;;;;;;;;;;;;;-140.72;100.00;52788.59;5088598;28;19916;-70
2023/05/02 00:27:45;;;;;;;;;;;;;;;-140.72;100.00;52743.94;5091644;28;19973;-70
2023/05/02 00:30:11;;;;;;;;;;;;;;;-140.72;100.00;52778.44;5091445;28;19995;-70
2023/05/02 00:32:36;;;;;;;;;;;;;;;-140.72;100.00;52764.25;5091787;28;19917;-70
2023/05/02 00:35:02;;;;;;;;;;;;;;;-140.72;100.00;52713.50;5099718;28;19920;-70
2023/05/02 00:37:27;;;;;;;;;;;;;;;-140.72;100.00;52754.09;5081557;28;19923;-70
2023/05/02 00:39:53;;;;;;;;;;;;;;;-140.72;100.00;52745.97;5098346;28;20298;-70
2023/05/02 00:42:18;;;;;;;;;;;;;;;-140.72;100.00;52756.13;5094204;28;20015;-70
2023/05/02 00:44:43;;;;;;;;;;;;;;;-140.72;100.00;52764.25;5094082;28;19916;-70
2023/05/02 00:47:20;;;;;;;;;;;;;;;-140.72;100.00;52693.22;5086985;28;19920;-70
2023/05/02 00:49:45;;;;;;;;;;;;;;;-140.72;100.00;52772.34;5090351;28;20000;-70
2023/05/02 00:52:10;;;;;;;;;;;;;;;-140.72;100.00;52695.25;5094682;28;19951;-70
2023/05/02 00:54:38;;;;;;;;;;;;;;;-140.72;100.00;52760.19;5098020;28;19924;-70
2023/05/02 00:57:05;;;;;;;;;;;;;;;-140.72;100.00;52721.63;5102633;28;20312;-70
2023/05/02 00:59:31;;;;;;;;;;;;;;;-140.72;100.00;52739.88;5086287;28;19927;-70
2023/05/02 01:02:05;;;;;;;;;;;;;;;-140.72;100.00;52745.97;5080423;28;20006;-69
2023/05/02 01:04:46;;;;;;;;;;;;;;;-140.72;100.00;52729.75;5091995;28;19939;-70
2023/05/02 01:07:32;;;;;;;;;;;;;;;-140.72;100.00;52754.09;5085218;28;21547;-70
2023/05/02 01:10:08;;;;;;;;;;;;;;;-140.72;100.00;52794.69;5086336;28;19916;-70
2023/05/02 01:12:52;;;;;;;;;;;;;;;-140.72;100.00;52806.84;5089431;28;20436;-70
2023/05/02 01:15:19;;;;;;;;;;;;;;;-140.72;100.00;52735.81;5099767;28;19927;-70
2023/05/02 01:17:46;;;;;;;;;;;;;;;-140.72;100.00;52762.22;5100876;28;20332;-70
2023/05/02 01:20:13;;;;;;;;;;;;;;;-140.72;100.00;52756.13;5089074;28;19928;-70
2023/05/02 01:22:40;;;;;;;;;;;;;;;-140.72;100.00;52735.81;5080803;28;19956;-70
2023/05/02 01:25:18;;;;;;;;;;;;;;;-140.72;100.00;52748.00;5089824;28;19931;-70
2023/05/02 01:28:02;;;;;;;;;;;;;;;-140.72;100.00;52770.31;5084872;28;19923;-70
2023/05/02 01:30:35;;;;;;;;;;;;;;;-140.72;100.00;52776.41;5084777;28;19923;-69
2023/05/02 01:33:02;;;;;;;;;;;;;;;-140.72;100.00;52758.16;5094688;28;19939;-69
2023/05/02 01:35:34;;;;;;;;;;;;;;;-140.72;100.00;52784.53;5101349;28;19920;-69
2023/05/02 01:38:01;;;;;;;;;;;;;;;-140.72;100.00;52762.22;5092380;28;19963;-70
2023/05/02 01:40:27;;;;;;;;;;;;;;;-140.72;100.00;52731.75;5083036;28;20266;-70
2023/05/02 01:42:53;;;;;;;;;;;;;;;-140.72;100.00;52752.06;5080247;28;20033;-69
2023/05/02 01:45:20;;;;;;;;;;;;;;;-140.72;100.00;52760.19;5092019;28;19920;-70
2023/05/02 01:47:47;;;;;;;;;;;;;;;-140.72;100.00;52776.41;5089823;28;19923;-70
2023/05/02 01:50:17;;;;;;;;;;;;;;;-140.72;100.00;52784.53;5088492;28;19943;-71
2023/05/02 01:52:43;;;;;;;;;;;;;;;-140.72;100.00;52752.06;5080269;28;19916;-70
2023/05/02 01:55:11;;;;;;;;;;;;;;;-140.72;100.00;52808.88;5089873;28;19916;-70
2023/05/02 01:57:38;;;;;;;;;;;;;;;-140.72;100.00;52756.13;5078842;28;19961;-70
2023/05/02 02:00:05;;;;;;;;;;;;;;;-140.72;100.00;52768.28;5092874;28;20343;-70
2023/05/02 02:02:32;;;;;;;;;;;;;;;-140.72;100.00;52750.03;5078788;28;20396;-69
2023/05/02 02:04:58;;;;;;;;;;;;;;;-140.72;100.00;52788.59;5079554;28;19916;-70
2023/05/02 02:07:23;;;;;;;;;;;;;;;-140.72;100.00;52758.16;5078582;28;19950;-70
2023/05/02 02:09:49;;;;;;;;;;;;;;;-140.72;100.00;52817.00;5095297;28;19919;-70
2023/05/02 02:12:16;;;;;;;;;;;;;;;-140.72;100.00;52750.03;5099165;28;19943;-70
2023/05/02 02:14:55;;;;;;;;;;;;;;;-140.72;100.00;52741.91;5089264;28;19916;-70
2023/05/02 02:17:23;;;;;;;;;;;;;;;-140.72;100.00;52796.72;5089716;28;19927;-70
2023/05/02 02:19:52;;;;;;;;;;;;;;;-140.72;100.00;52770.31;5075589;28;20026;-70
2023/05/02 02:22:18;;;;;;;;;;;;;;;-140.72;100.00;52743.94;5082167;28;20374;-70
2023/05/02 02:24:45;;;;;;;;;;;;;;;-140.72;100.00;52794.69;5090333;28;19920;-70
2023/05/02 02:27:10;;;;;;;;;;;;;;;-140.72;100.00;52778.44;5082667;28;19970;-70
2023/05/02 02:29:35;;;;;;;;;;;;;;;-140.72;100.00;52764.25;5078144;28;20349;-70
2023/05/02 02:32:01;;;;;;;;;;;;;;;-140.72;100.00;52798.72;5073345;28;20006;-70
2023/05/02 02:34:32;;;;;;;;;;;;;;;-140.72;100.00;52762.22;5083496;28;19957;-70
2023/05/02 02:37:00;;;;;;;;;;;;;;;-140.72;100.00;52758.16;5076601;28;20378;-70
2023/05/02 02:39:28;;;;;;;;;;;;;;;-140.72;100.00;52768.28;5075865;28;19997;-70
2023/05/02 02:42:06;;;;;;;;;;;;;;;-140.72;100.00;52772.34;5088849;28;19967;-70
2023/05/02 02:44:32;;;;;;;;;;;;;;;-140.72;100.00;52748.00;5090276;28;19923;-70
2023/05/02 02:46:58;;;;;;;;;;;;;;;-140.72;100.00;52768.28;5082635;28;19977;-70
2023/05/02 02:49:23;;;;;;;;;;;;;;;-140.72;100.00;52804.81;5096222;28;20339;-70
2023/05/02 02:52:10;;;;;;;;;;;;;;;-140.72;100.00;52768.28;5087199;28;19921;-71
2023/05/02 02:54:45;;;;;;;;;;;;;;;-140.72;100.00;52748.00;5093023;28;19916;-71
2023/05/02 02:57:15;;;;;;;;;;;;;;;-140.72;100.00;52768.28;5091150;28;19986;-71
2023/05/02 02:59:46;;;;;;;;;;;;;;;-140.72;100.00;52768.28;5091554;28;19942;-71
2023/05/02 03:02:11;;;;;;;;;;;;;;;-140.72;100.00;52780.47;5088549;28;19920;-71
2023/05/02 03:04:38;;;;;;;;;;;;;;;-140.72;100.00;52792.66;5091016;28;20027;-69
2023/05/02 03:07:03;;;;;;;;;;;;;;;-140.72;100.00;52788.59;5093805;28;19920;-69
2023/05/02 03:09:44;;;;;;;;;;;;;;;-140.72;100.00;52772.34;5095391;28;19927;-69
2023/05/02 03:12:10;;;;;;;;;;;;;;;-140.72;100.00;52810.91;5082702;28;19977;-71
2023/05/02 03:14:36;;;;;;;;;;;;;;;-140.72;100.00;52784.53;5087027;28;19986;-69
2023/05/02 03:17:01;;;;;;;;;;;;;;;-140.72;100.00;52766.25;5106919;28;20441;-71
2023/05/02 03:19:27;;;;;;;;;;;;;;;-140.72;100.00;52786.56;5086250;28;19952;-71
2023/05/02 03:21:52;;;;;;;;;;;;;;;-140.72;100.00;52778.44;5089165;28;19916;-71
2023/05/02 03:24:17;;;;;;;;;;;;;;;-140.72;100.00;52782.50;5102412;28;19924;-71
2023/05/02 03:26:42;;;;;;;;;;;;;;;-140.72;100.00;52780.47;5091764;28;19920;-69
2023/05/02 03:29:07;;;;;;;;;;;;;;;-140.72;100.00;52792.66;5090300;28;19973;-70
2023/05/02 03:31:33;;;;;;;;;;;;;;;-140.72;100.00;52786.56;5087555;28;19924;-70
2023/05/02 03:33:58;;;;;;;;;;;;;;;-140.72;100.00;52804.81;5092521;28;19943;-70
2023/05/02 03:36:23;;;;;;;;;;;;;;;-140.72;100.00;52806.84;5077957;28;19916;-70
2023/05/02 03:38:48;;;;;;;;;;;;;;;-140.72;100.00;52788.59;5093356;28;19916;-70
2023/05/02 03:41:13;;;;;;;;;;;;;;;-140.72;100.00;52778.44;5078373;28;20370;-70
2023/05/02 03:43:39;;;;;;;;;;;;;;;-140.72;100.00;52737.84;5077251;28;19986;-70
2023/05/02 03:46:06;;;;;;;;;;;;;;;-140.72;100.00;52780.47;5088058;28;19916;-70
2023/05/02 03:48:32;;;;;;;;;;;;;;;-140.72;100.00;52745.97;5083129;28;19920;-70
2023/05/02 03:50:57;;;;;;;;;;;;;;;-140.72;100.00;52760.19;5076354;28;20392;-70
2023/05/02 03:53:22;;;;;;;;;;;;;;;-140.72;100.00;52772.34;5087349;28;19917;-70
2023/05/02 03:55:47;;;;;;;;;;;;;;;-140.72;100.00;52823.09;5092182;28;20374;-70
2023/05/02 03:58:12;;;;;;;;;;;;;;;-140.72;100.00;52774.38;5083523;28;19965;-70
2023/05/02 04:00:38;;;;;;;;;;;;;;;-140.72;100.00;52788.59;5079340;28;20432;-70
2023/05/02 04:03:03;;;;;;;;;;;;;;;-140.72;100.00;52821.06;5083472;28;19916;-70
2023/05/02 04:05:29;;;;;;;;;;;;;;;-140.72;100.00;52806.84;5090064;28;19946;-70
2023/05/02 04:07:57;;;;;;;;;;;;;;;-140.72;100.00;52760.19;5082661;28;19920;-70
2023/05/02 04:10:22;;;;;;;;;;;;;;;-140.72;100.00;52774.38;5090803;28;19954;-70
2023/05/02 04:12:48;;;;;;;;;;;;;;;-140.72;100.00;52760.19;5082208;28;19921;-70
2023/05/02 04:15:13;;;;;;;;;;;;;;;-140.72;100.00;52798.72;5077587;28;19920;-70
2023/05/02 04:17:38;;;;;;;;;;;;;;;-140.72;100.00;52778.44;5091084;28;19923;-70
2023/05/02 04:20:04;;;;;;;;;;;;;;;-140.72;100.00;52802.78;5083000;28;19928;-70
2023/05/02 04:22:30;;;;;;;;;;;;;;;-140.72;100.00;52762.22;5091720;28;19923;-70
2023/05/02 04:24:55;;;;;;;;;;;;;;;-140.72;100.00;52790.63;5086674;28;19924;-69
2023/05/02 04:27:20;;;;;;;;;;;;;;;-140.72;100.00;52792.66;5096792;28;19954;-70
2023/05/02 04:29:49;;;;;;;;;;;;;;;-140.72;100.00;52768.28;5091951;28;19998;-71
2023/05/02 04:32:14;;;;;;;;;;;;;;;-140.72;100.00;52762.22;5087665;28;19923;-72
2023/05/02 04:34:40;;;;;;;;;;;;;;;-140.72;100.00;52786.56;5093061;28;19916;-72
2023/05/02 04:37:06;;;;;;;;;;;;;;;-140.72;100.00;52772.34;5089339;28;20403;-71
2023/05/02 04:39:31;;;;;;;;;;;;;;;-140.72;100.00;52825.13;5086861;28;19917;-72
2023/05/02 04:41:56;;;;;;;;;;;;;;;-140.72;100.00;52780.47;5094620;28;19916;-72
2023/05/02 04:44:21;;;;;;;;;;;;;;;-140.72;100.00;52821.06;5094988;28;19923;-72
2023/05/02 04:46:47;;;;;;;;;;;;;;;-140.72;100.00;52756.13;5075801;28;20382;-72
2023/05/02 04:49:12;;;;;;;;;;;;;;;-140.72;100.00;52790.63;5087807;28;19955;-72
2023/05/02 04:51:38;;;;;;;;;;;;;;;-140.72;100.00;52770.31;5081268;28;19916;-73
2023/05/02 04:54:03;;;;;;;;;;;;;;;-140.72;100.00;52766.25;5086442;28;19962;-72
2023/05/02 04:56:28;;;;;;;;;;;;;;;-140.72;100.00;52817.00;5097793;28;19917;-72
2023/05/02 05:02:11;;;;;;;;;;;;;;;-140.72;100.00;52748.00;5068292;28;19927;-73
2023/05/02 05:04:36;;;;;;;;;;;;;;;-140.72;100.00;52760.19;5072103;28;19928;-73
2023/05/02 05:07:03;;;;;;;;;;;;;;;-140.72;100.00;52800.75;5055291;28;19917;-72
2023/05/02 05:09:28;;;;;;;;;;;;;;;-140.72;100.00;52788.59;5066806;28;19963;-72
2023/05/02 05:14:56;;;;;;;;;;;;;;;-140.72;100.00;52782.50;5059675;28;19928;-71
2023/05/02 05:17:21;;;;;;;;;;;;;;;-140.72;100.00;52766.25;5066003;28;19916;-73
2023/05/02 05:19:47;;;;;;;;;;;;;;;-140.72;100.00;52764.25;5064106;28;20007;-72
2023/05/02 05:22:12;;;;;;;;;;;;;;;-140.72;100.00;52737.84;5058438;28;19924;-72
2023/05/02 05:24:38;;;;;;;;;;;;;;;-140.72;100.00;52758.16;5065891;28;19938;-73
2023/05/02 05:27:03;;;;;;;;;;;;;;;-140.72;100.00;52784.53;5069719;28;20412;-71
2023/05/02 05:29:30;;;;;;;;;;;;;;;-140.72;100.00;52772.34;5068891;28;20299;-71
2023/05/02 05:31:55;;;;;;;;;;;;;;;-140.72;100.00;52758.16;5071916;28;19925;-71
2023/05/02 05:34:21;;;;;;;;;;;;;;;-140.72;100.00;52741.91;5072723;28;20383;-71
2023/05/02 05:36:46;;;;;;;;;;;;;;;-140.72;100.00;52780.47;5054681;28;19927;-72
2023/05/02 05:39:12;;;;;;;;;;;;;;;-140.72;100.00;52772.34;5068482;28;20377;-73
2023/05/02 05:41:37;;;;;;;;;;;;;;;-140.72;100.00;52766.25;5075102;28;19921;-73
2023/05/02 05:44:02;;;;;;;;;;;;;;;-140.72;100.00;52796.72;5068167;28;19935;-73
2023/05/02 05:46:28;;;;;;;;;;;;;;;-140.72;100.00;52762.22;5070794;28;19923;-73
2023/05/02 05:48:53;;;;;;;;;;;;;;;-140.72;100.00;52772.34;5063480;28;19923;-71
2023/05/02 05:51:18;;;;;;;;;;;;;;;-140.72;100.00;52790.63;5082145;28;19966;-71
2023/05/02 05:54:01;;;;;;;;;;;;;;;-140.72;100.00;52756.13;5072549;28;20378;-71
2023/05/02 05:56:26;;;;;;;;;;;;;;;-140.72;100.00;52719.59;5059710;28;19924;-71
2023/05/02 05:58:51;;;;;;;;;;;;;;;-140.72;100.00;52776.41;5072553;28;20309;-71
2023/05/02 06:01:16;;;;;;;;;;;;;;;-140.72;100.00;52723.66;5069443;28;20407;-71
2023/05/02 06:04:11;;;;;;;;;;;;;;;-140.72;100.00;52711.47;5088381;28;19927;-71
2023/05/02 06:06:37;;;;;;;;;;;;;;;-140.72;100.00;52719.59;5090835;28;19923;-71
2023/05/02 06:09:03;;;;;;;;;;;;;;;-140.72;93.74;52745.97;5090712;28;19916;-71
2023/05/02 06:11:28;;;;;;;;;;;;;;;-140.72;82.43;52752.06;5091265;28;19943;-71
2023/05/02 06:13:53;;;;;;;;;;;;;;;-140.72;63.03;52754.09;5087482;28;19963;-71
2023/05/02 06:16:18;;;;;;;;;;;;;;;-140.72;52.91;52780.47;5086540;28;20374;-71
2023/05/02 06:18:44;;;;;;;;;;;;;;;-140.72;44.85;52745.97;5090332;28;19978;-71
2023/05/02 06:21:09;;;;;;;;;;;;;;;-140.72;28.16;52743.94;5099326;28;19927;-71
2023/05/02 06:23:35;;;;;;;;;;;;;;;-140.72;22.50;52739.88;5093004;28;19927;-71
2023/05/02 06:26:01;;;;;;;;;;;;;;;-140.72;12.16;52754.09;5094248;28;19916;-71
2023/05/02 06:28:26;;;;;;;;;;;;;;;-140.72;0.00;52727.72;5093856;28;19971;-71
2023/05/02 06:30:58;;;;;;;;;;;;;;;-140.72;0.00;52748.00;5097501;28;20346;-71
2023/05/02 06:33:23;;;;;;;;;;;;;;;-140.72;0.00;52715.53;5086256;28;19999;-71
2023/05/02 06:35:52;;;;;;;;;;;;;;;-140.72;0.00;52743.94;5083682;28;19955;-70
2023/05/02 06:38:17;;;;;;;;;;;;;;;-140.72;0.00;52707.41;5085923;28;20309;-71
2023/05/02 06:40:44;;;;;;;;;;;;;;;-140.72;0.00;52676.97;5083199;28;19916;-70
2023/05/02 06:43:09;;;;;;;;;;;;;;;-140.72;0.00;52723.66;5080117;28;20290;-71
2023/05/02 06:45:34;;;;;;;;;;;;;;;-140.72;0.00;52743.94;5076545;28;19916;-71
2023/05/02 06:47:59;;;;;;;;;;;;;;;-140.72;0.00;52693.22;5078665;28;19917;-71
2023/05/02 06:50:25;;;;;;;;;;;;;;;-140.72;0.00;52760.19;5097068;28;19974;-71
2023/05/02 06:52:50;;;;;;;;;;;;;;;-140.72;0.00;52719.59;5084258;28;19916;-71
2023/05/02 06:55:15;;;;;;;;;;;;;;;-140.72;0.00;52681.03;5096182;28;20309;-71
2023/05/02 06:57:41;;;;;;;;;;;;;;;-140.72;0.00;52715.53;5083579;28;20003;-71
2023/05/02 07:00:06;;;;;;;;;;;;;;;-140.72;0.00;52721.63;5096196;28;19920;-71
2023/05/02 07:02:32;;;;;;;;;;;;;;;-140.72;0.00;52725.69;5082987;28;19923;-71
2023/05/02 07:04:57;;;;;;;;;;;;;;;-140.72;0.00;52679.00;5087659;28;20019;-71
2023/05/02 07:07:22;;;;;;;;;;;;;;;-140.72;0.00;52691.19;5104560;28;19915;-71
2023/05/02 07:09:47;;;;;;;;;;;;;;;-140.72;0.00;52679.00;5095103;28;19916;-71
2023/05/02 07:12:13;;;;;;;;;;;;;;;-140.72;0.00;52687.13;5093792;28;20344;-71
2023/05/02 07:14:38;;;;;;;;;;;;;;;-140.72;0.00;52685.09;5093010;28;19916;-71
2023/05/02 07:17:03;;;;;;;;;;;;;;;-140.72;0.00;52668.84;5113017;28;19950;-71
2023/05/02 07:19:28;;;;;;;;;;;;;;;-140.72;0.00;52687.13;5097306;28;19916;-71
2023/05/02 07:21:53;;;;;;;;;;;;;;;-140.72;0.00;52664.81;5096393;28;19919;-71
2023/05/02 07:24:19;;;;;;;;;;;;;;;-140.72;0.00;52670.88;5078365;28;19916;-71
2023/05/02 07:26:44;;;;;;;;;;;;;;;-140.72;0.00;52683.06;5077767;28;19939;-71
2023/05/02 07:29:10;;;;;;;;;;;;;;;-140.72;0.00;52697.28;5086050;28;19920;-71
2023/05/02 07:31:35;;;;;;;;;;;;;;;-140.72;0.00;52699.31;5105490;28;19920;-71
2023/05/02 07:34:00;;;;;;;;;;;;;;;-140.72;0.00;52695.25;5077906;28;19923;-71
2023/05/02 07:36:26;;;;;;;;;;;;;;;-140.72;0.00;52687.13;5086883;28;19916;-71
2023/05/02 07:38:52;;;;;;;;;;;;;;;-140.72;0.00;52674.94;5093332;28;19923;-71
2023/05/02 07:41:17;;;;;;;;;;;;;;;-140.72;0.00;52640.44;5094948;28;19920;-71
2023/05/02 07:43:42;;;;;;;;;;;;;;;-140.72;0.00;52727.72;5096144;28;19916;-71
2023/05/02 07:46:07;;;;;;;;;;;;;;;-140.72;0.00;52685.09;5083022;28;19917;-71
2023/05/02 07:48:33;;;;;;;;;;;;;;;-140.72;0.00;52689.16;5095255;28;19916;-71
2023/05/02 07:51:08;;;;;;;;;;;;;;;-140.72;0.00;52676.97;5101097;28;20385;-71
2023/05/02 07:53:33;;;;;;;;;;;;;;;-140.72;0.00;52691.19;5084011;28;19940;-71
2023/05/02 07:55:58;;;;;;;;;;;;;;;-140.72;0.00;52687.13;5094130;28;19923;-71
2023/05/02 07:58:24;;;;;;;;;;;;;;;-140.72;0.00;52697.28;5075854;28;19917;-71
2023/05/02 08:00:49;;;;;;;;;;;;;;;-140.72;0.00;52670.88;5089903;28;20239;-71
2023/05/02 08:03:14;;;;;;;;;;;;;;;-140.72;0.00;52693.22;5095497;28;19916;-71
2023/05/02 08:05:40;;;;;;;;;;;;;;;-140.72;0.00;52699.31;5090166;28;20298;-71
2023/05/02 08:08:05;;;;;;;;;;;;;;;-140.72;0.00;52666.84;5086248;28;19962;-71
2023/05/02 08:10:30;;;;;;;;;;;;;;;-140.72;0.00;52666.84;5108918;27;19923;-71
2023/05/02 08:12:55;;;;;;;;;;;;;;;-140.72;0.00;52652.63;5091729;28;19923;-73
2023/05/02 08:15:21;;;;;;;;;;;;;;;-140.72;0.00;52650.59;5090641;28;19920;-72
2023/05/02 08:17:46;;;;;;;;;;;;;;;-140.72;0.00;52636.38;5103431;28;19927;-72
2023/05/02 08:20:11;;;;;;;;;;;;;;;-140.72;0.00;52634.38;5093961;28;20333;-72
2023/05/02 08:22:36;;;;;;;;;;;;;;;-140.72;0.00;52636.38;5078647;28;19924;-72
2023/05/02 08:25:02;;;;;;;;;;;;;;;-140.72;0.00;52674.94;5089138;28;19927;-72
2023/05/02 08:27:27;;;;;;;;;;;;;;;-140.72;0.00;52679.00;5084490;28;19991;-72
2023/05/02 08:29:52;;;;;;;;;;;;;;;-140.72;0.00;52693.22;5088490;28;20381;-72
2023/05/02 08:32:17;;;;;;;;;;;;;;;-140.72;0.00;52642.47;5119149;27;20002;-72
2023/05/02 08:34:42;;;;;;;;;;;;;;;-140.72;0.00;52683.06;5092478;28;20370;-72
2023/05/02 08:37:08;;;;;;;;;;;;;;;-140.72;0.00;52670.88;5079262;28;19916;-73
2023/05/02 08:39:34;;;;;;;;;;;;;;;-140.72;0.00;52610.00;5088541;28;20014;-72
2023/05/02 08:41:59;;;;;;;;;;;;;;;-140.72;0.00;52666.84;5084468;28;19916;-72
2023/05/02 08:44:24;;;;;;;;;;;;;;;-140.72;0.00;52640.44;5094956;28;19919;-72
2023/05/02 08:46:51;;;;;;;;;;;;;;;-140.72;0.00;52658.72;5080541;28;19946;-72
2023/05/02 08:49:17;;;;;;;;;;;;;;;-140.72;0.00;52624.22;5077651;28;19916;-72
2023/05/02 08:51:43;;;;;;;;;;;;;;;-140.72;0.00;52593.78;5095949;28;19923;-72
2023/05/02 08:54:09;;;;;;;;;;;;;;;-140.72;0.00;52581.59;5078829;28;19960;-71
2023/05/02 08:56:35;;;;;;;;;;;;;;;-140.72;0.00;52583.63;5086923;28;19960;-72
2023/05/02 08:59:00;;;;;;;;;;;;;;;-140.72;0.00;52595.81;5086456;28;20020;-71
2023/05/02 09:01:29;;;;;;;;;;;;;;;-140.72;0.00;52549.13;5083504;28;19924;-71
2023/05/02 09:03:57;;;;;;;;;;;;;;;-140.72;0.00;52610.00;5088610;28;20354;-72
2023/05/02 09:06:22;;;;;;;;;;;;;;;-140.72;0.00;52569.44;5088162;28;19963;-72
2023/05/02 09:08:48;;;;;;;;;;;;;;;-140.72;0.00;52577.53;5090707;28;19920;-72
2023/05/02 09:11:14;;;;;;;;;;;;;;;-140.72;0.00;52624.22;5073967;28;19999;-72
2023/05/02 09:13:40;;;;;;;;;;;;;;;-140.72;0.00;52601.91;5081708;28;19916;-72
2023/05/02 09:16:07;;;;;;;;;;;;;;;-140.72;0.00;52534.94;5082877;28;19920;-71
2023/05/02 09:18:36;;;;;;;;;;;;;;;-140.72;0.00;52467.97;5084551;28;20370;-72
2023/05/02 09:21:13;;;;;;;;;;;;;;;-140.72;0.00;52516.66;5094537;28;19923;-71
2023/05/02 09:23:42;;;;;;;;;;;;;;;-140.72;0.00;52443.63;5083919;28;19917;-72
2023/05/02 09:26:11;;;;;;;;;;;;;;;-140.72;0.00;52423.31;5079782;28;20353;-73
2023/05/02 09:28:38;;;;;;;;;;;;;;;-140.72;0.00;52421.28;5101320;28;19939;-71
2023/05/02 09:31:08;;;;;;;;;;;;;;;-140.72;0.00;52459.84;5081159;28;20273;-70
2023/05/02 09:33:33;;;;;;;;;;;;;;;-140.72;0.00;52378.69;5094490;28;20414;-70
2023/05/02 09:35:58;;;;;;;;;;;;;;;-140.72;0.00;52405.06;5094166;28;19939;-70
2023/05/02 09:38:24;;;;;;;;;;;;;;;-140.72;0.00;52309.69;5090938;28;19920;-69
2023/05/02 09:40:56;;;;;;;;;;;;;;;-140.72;0.00;52321.88;5073653;28;20013;-73
2023/05/02 09:43:21;;;;;;;;;;;;;;;-140.72;0.00;52407.09;5099675;28;19917;-70
2023/05/02 09:46:06;;;;;;;;;;;;;;;-140.72;0.00;52401.00;5074040;28;19923;-75
2023/05/02 09:48:32;;;;;;;;;;;;;;;-140.72;0.00;52504.50;5079336;28;19923;-75
2023/05/02 09:50:57;;;;;;;;;;;;;;;-140.72;0.00;52338.09;5105698;28;20010;-76
2023/05/02 09:53:23;;;;;;;;;;;;;;;-140.72;0.00;52370.56;5131524;27;19956;-75
2023/05/02 09:55:58;;;;;;;;;;;;;;;-140.72;0.00;52439.56;5074593;28;19998;-76
2023/05/02 09:58:24;;;;;;;;;;;;;;;-140.72;0.00;52427.38;5095033;28;20378;-75
2023/05/02 10:00:50;;;;;;;;;;;;;;;-140.72;0.00;52325.94;5080919;28;19920;-75
2023/05/02 10:03:16;;;;;;;;;;;;;;;-140.72;0.00;52352.31;5086315;28;20058;-70
2023/05/02 10:05:42;;;;;;;;;;;;;;;-140.72;0.00;52305.63;5084438;28;20390;-71
2023/05/02 10:08:09;;;;;;;;;;;;;;;-140.72;0.00;52277.22;5099382;28;19924;-71
2023/05/02 10:10:35;;;;;;;;;;;;;;;-140.72;0.00;52285.34;5092259;28;20395;-72
2023/05/02 10:13:02;;;;;;;;;;;;;;;-140.72;0.00;52261.00;5094381;28;20011;-77
2023/05/02 10:15:28;;;;;;;;;;;;;;;-140.72;0.00;52327.97;5079389;28;19989;-77
2023/05/02 10:17:55;;;;;;;;;;;;;;;-140.72;0.00;52295.50;5084709;28;19924;-77
2023/05/02 10:20:22;;;;;;;;;;;;;;;-140.72;0.00;52327.97;5082793;28;19916;-77
2023/05/02 10:22:48;;;;;;;;;;;;;;;-140.72;0.00;52386.81;5086668;28;19916;-78
2023/05/02 10:25:13;;;;;;;;;;;;;;;-140.72;0.00;52396.94;5094747;28;19927;-77
2023/05/02 10:27:39;;;;;;;;;;;;;;;-140.72;0.00;52398.97;5099675;28;19916;-75
2023/05/02 10:30:05;;;;;;;;;;;;;;;-140.72;0.00;52435.50;5098043;28;19956;-78
2023/05/02 10:32:32;;;;;;;;;;;;;;;-140.72;0.00;52480.16;5088331;28;19924;-79
2023/05/02 10:35:01;;;;;;;;;;;;;;;-140.72;0.00;52423.31;5096553;28;19916;-78
2023/05/02 10:37:28;;;;;;;;;;;;;;;-140.72;0.00;52309.69;5127733;27;19916;-76
2023/05/02 10:39:53;;;;;;;;;;;;;;;-140.72;0.00;52252.88;5084102;28;19960;-77
2023/05/02 10:42:19;;;;;;;;;;;;;;;-140.72;0.00;52252.88;5095887;28;19952;-77
2023/05/02 10:44:45;;;;;;;;;;;;;;;-140.72;0.00;52258.97;5092324;28;19920;-72
2023/05/02 10:47:17;;;;;;;;;;;;;;;-140.72;0.00;52214.34;5098809;28;19924;-72
2023/05/02 10:49:59;;;;;;;;;;;;;;;-140.72;0.00;52185.94;5111943;28;19941;-73
2023/05/02 10:52:37;;;;;;;;;;;;;;;-140.72;0.00;52171.72;5102945;28;19927;-72
2023/05/02 10:55:21;;;;;;;;;;;;;;;-140.72;0.00;52228.53;5108687;28;19961;-74
2023/05/02 10:57:56;;;;;;;;;;;;;;;-140.72;0.00;52200.13;5089483;28;19916;-72
2023/05/02 11:00:22;;;;;;;;;;;;;;;-140.72;0.00;52185.94;5096070;28;19920;-72
2023/05/02 11:06:03;;;;;;;;;;;;;;;-140.72;0.00;52240.72;5082243;28;19989;-72
2023/05/02 11:08:29;;;;;;;;;;;;;;;-140.72;0.00;52177.81;5079008;28;20363;-72
2023/05/02 11:10:54;;;;;;;;;;;;;;;-140.72;0.00;52192.00;5095103;28;20015;-72
2023/05/02 11:13:55;;;;;;;;;;;;;;;-140.72;0.00;52175.78;5085271;28;19923;-73
2023/05/02 11:16:20;;;;;;;;;;;;;;;-140.72;0.00;52106.78;5080861;28;19916;-73
2023/05/02 11:18:57;;;;;;;;;;;;;;;-140.72;0.00;52054.03;5079893;28;19927;-73
2023/05/02 11:21:28;;;;;;;;;;;;;;;-140.72;0.00;52200.13;5084784;28;19916;-73
2023/05/02 11:24:13;;;;;;;;;;;;;;;-140.72;0.00;52175.78;5092351;28;19920;-73
2023/05/02 11:26:38;;;;;;;;;;;;;;;-140.72;0.00;52074.34;5092560;28;20285;-72
2023/05/02 11:29:03;;;;;;;;;;;;;;;-140.72;0.00;52041.88;5088887;28;19920;-73
2023/05/02 11:31:28;;;;;;;;;;;;;;;-140.72;0.00;52049.97;5077616;28;19963;-73
2023/05/02 11:33:57;;;;;;;;;;;;;;;-140.72;0.00;52009.41;5092089;28;20000;-75
2023/05/02 11:36:29;;;;;;;;;;;;;;;-140.72;0.00;52060.13;5076477;28;19943;-77
2023/05/02 11:38:54;;;;;;;;;;;;;;;-140.72;0.00;52171.72;5093128;28;19955;-76
2023/05/02 11:41:20;;;;;;;;;;;;;;;-140.72;0.00;52265.06;5084408;28;19924;-75
2023/05/02 11:43:45;;;;;;;;;;;;;;;-140.72;0.00;52114.91;5090243;28;20293;-75
2023/05/02 11:46:11;;;;;;;;;;;;;;;-140.72;0.00;52110.84;5088926;28;19917;-75
2023/05/02 11:48:36;;;;;;;;;;;;;;;-140.72;0.00;52049.97;5094970;28;19923;-76
2023/05/02 11:51:03;;;;;;;;;;;;;;;-140.72;0.00;52234.63;5094776;28;20335;-75
2023/05/02 11:53:28;;;;;;;;;;;;;;;-140.72;0.00;52330.00;5093117;28;20255;-75
2023/05/02 11:55:54;;;;;;;;;;;;;;;-140.72;0.00;52206.22;5104093;28;19931;-75
2023/05/02 11:58:20;;;;;;;;;;;;;;;-140.72;0.00;52153.47;5083584;28;20003;-75
2023/05/02 12:00:46;;;;;;;;;;;;;;;-140.72;0.00;52151.44;5087315;28;19932;-74
2023/05/02 12:03:18;;;;;;;;;;;;;;;-140.72;0.00;52153.47;5089604;28;19916;-75
2023/05/02 12:05:43;;;;;;;;;;;;;;;-140.72;0.00;52110.84;5082624;28;19942;-75
2023/05/02 12:08:16;;;;;;;;;;;;;;;-140.72;0.00;52039.84;5084015;28;19916;-75
2023/05/02 12:10:42;;;;;;;;;;;;;;;-140.72;0.00;52001.28;5100821;28;19916;-75
2023/05/02 12:13:07;;;;;;;;;;;;;;;-140.72;0.00;52187.97;5097505;28;19942;-75
2023/05/02 12:15:33;;;;;;;;;;;;;;;-140.72;0.00;52267.09;5095089;28;19916;-75
2023/05/02 12:17:58;;;;;;;;;;;;;;;-140.72;0.00;52220.41;5096351;28;19916;-74
2023/05/02 12:20:23;;;;;;;;;;;;;;;-140.72;0.00;52155.50;5088247;28;19952;-74
2023/05/02 12:22:49;;;;;;;;;;;;;;;-140.72;0.00;52078.38;5077132;28;19924;-73
2023/05/02 12:25:14;;;;;;;;;;;;;;;-140.72;0.00;52054.03;5094201;28;20034;-76
2023/05/02 12:27:40;;;;;;;;;;;;;;;-140.72;0.00;52100.72;5082109;28;19978;-76
2023/05/02 12:33:06;;;;;;;;;;;;;;;-140.72;0.00;52319.84;5091584;28;19927;-73
2023/05/02 12:35:38;;;;;;;;;;;;;;;-140.72;0.00;52183.91;5086843;28;19916;-74
2023/05/02 12:38:09;;;;;;;;;;;;;;;-140.72;0.00;52145.34;5092536;28;19928;-74
2023/05/02 12:40:35;;;;;;;;;;;;;;;-140.72;0.00;52121.00;5083255;28;20291;-71